createdAt,value
2023-04-21T00:03:00.667Z,94808
2023-04-21T00:06:25.700Z,94805
2023-04-21T00:09:50.948Z,94803
2023-04-21T00:13:16.194Z,94801
2023-04-21T00:16:41.523Z,94800
2023-04-21T00:20:06.618Z,94807
2023-04-21T00:23:31.856Z,94803
2023-04-21T00:26:57.077Z,94803
2023-04-21T00:30:22.320Z,94806
2023-04-21T00:33:47.591Z,94802
2023-04-21T00:37:12.798Z,94800
2023-04-21T00:40:38.536Z,94796
2023-04-21T00:44:03.764Z,94797
2023-04-21T00:47:29.046Z,94794
2023-04-21T00:50:54.270Z,94792
2023-04-21T00:54:19.533Z,94790
2023-04-21T00:57:44.742Z,94784
2023-04-21T01:01:09.967Z,94783
2023-04-21T01:04:35.196Z,94788
2023-04-21T01:08:00.418Z,94785
2023-04-21T01:11:25.622Z,94788
2023-04-21T01:14:50.817Z,94790
2023-04-21T01:18:16.030Z,94794
2023-04-21T01:21:41.261Z,94796
2023-04-21T01:25:06.492Z,94788
2023-04-21T01:28:31.736Z,94789
2023-04-21T01:31:56.989Z,94790
2023-04-21T01:35:22.167Z,94790
2023-04-21T01:38:47.406Z,94793
2023-04-21T01:42:12.700Z,94788
2023-04-21T01:45:37.887Z,94784
2023-04-21T01:49:03.096Z,94781
2023-04-21T01:52:28.356Z,94792
2023-04-21T01:55:53.610Z,94788
2023-04-21T01:59:19.065Z,94781
2023-04-21T02:02:44.205Z,94778
2023-04-21T02:06:09.338Z,94781
2023-04-21T02:09:34.549Z,94792
2023-04-21T02:12:59.757Z,94788
2023-04-21T02:16:25.042Z,94788
2023-04-21T02:19:50.212Z,94791
2023-04-21T02:23:15.428Z,94790
2023-04-21T02:26:40.620Z,94783
2023-04-21T02:30:05.847Z,94778
2023-04-21T02:33:31.107Z,94786
2023-04-21T02:36:56.234Z,94782
2023-04-21T02:40:21.471Z,94790
2023-04-21T02:43:46.681Z,94787
2023-04-21T02:47:11.934Z,94790
2023-04-21T02:50:37.197Z,94786
2023-04-21T02:54:02.397Z,94796
2023-04-21T02:57:27.596Z,94792
2023-04-21T03:00:52.863Z,94793
2023-04-21T03:04:18.146Z,94791
2023-04-21T03:07:43.318Z,94787
2023-04-21T03:11:08.544Z,94791
2023-04-21T03:14:33.785Z,94780
2023-04-21T03:17:59.065Z,94781
2023-04-21T03:21:24.268Z,94781
2023-04-21T03:24:49.532Z,94777
2023-04-21T03:28:14.723Z,94772
2023-04-21T03:31:40.010Z,94772
2023-04-21T03:35:05.200Z,94771
2023-04-21T03:38:30.423Z,94774
2023-04-21T03:41:55.658Z,94772
2023-04-21T03:45:20.878Z,94771
2023-04-21T03:48:46.108Z,94775
2023-04-21T03:52:11.338Z,94772
2023-04-21T03:55:36.722Z,94773
2023-04-21T03:59:02.034Z,94779
2023-04-21T04:02:27.277Z,94782
2023-04-21T04:05:52.425Z,94786
2023-04-21T04:09:18.010Z,94789
2023-04-21T04:12:43.713Z,94792
2023-04-21T04:16:09.012Z,94794
2023-04-21T04:19:34.383Z,94793
2023-04-21T04:22:59.593Z,94792
2023-04-21T04:26:24.875Z,94794
2023-04-21T04:29:50.148Z,94796
2023-04-21T04:33:23.783Z,94799
2023-04-21T04:36:48.972Z,94793
2023-04-21T04:40:14.178Z,94795
2023-04-21T04:43:39.413Z,94796
2023-04-21T04:47:04.717Z,94803
2023-04-21T04:50:29.872Z,94800
2023-04-21T04:53:55.085Z,94798
2023-04-21T04:57:20.296Z,94798
2023-04-21T05:00:45.514Z,94797
2023-04-21T05:04:10.886Z,94797
2023-04-21T05:07:36.134Z,94806
2023-04-21T05:11:01.255Z,94796
2023-04-21T05:14:26.520Z,94800
2023-04-21T05:17:51.770Z,94802
2023-04-21T05:21:16.974Z,94800
2023-04-21T05:24:42.230Z,94800
2023-04-21T05:28:07.406Z,94799
2023-04-21T05:31:32.688Z,94810
2023-04-21T05:34:57.867Z,94819
2023-04-21T05:38:23.093Z,94814
2023-04-21T05:41:48.499Z,94816
2023-04-21T05:45:13.586Z,94812
2023-04-21T05:48:38.831Z,94818
2023-04-21T05:52:04.043Z,94821
2023-04-21T05:55:29.300Z,94815
2023-04-21T05:58:54.562Z,94814
2023-04-21T06:02:19.866Z,94812
2023-04-21T06:05:45.030Z,94813
2023-04-21T06:09:10.221Z,94800
2023-04-21T06:12:35.490Z,94803
2023-04-21T06:16:00.761Z,94810
2023-04-21T06:19:25.963Z,94809
2023-04-21T06:22:51.225Z,94807
2023-04-21T06:26:16.439Z,94805
2023-04-21T06:29:41.652Z,94806
2023-04-21T06:33:07.004Z,94804
2023-04-21T06:36:32.148Z,94797
2023-04-21T06:39:57.406Z,94799
2023-04-21T06:43:22.630Z,94796
2023-04-21T06:46:47.848Z,94793
2023-04-21T06:50:13.071Z,94794
2023-04-21T06:53:38.267Z,94791
2023-04-21T06:57:03.482Z,94792
2023-04-21T07:00:28.736Z,94788
2023-04-21T07:03:54.132Z,94789
2023-04-21T07:07:19.303Z,94790
2023-04-21T07:10:44.486Z,94781
2023-04-21T07:14:09.687Z,94785
2023-04-21T07:17:34.951Z,94783
2023-04-21T07:21:00.144Z,94783
2023-04-21T07:24:25.387Z,94790
2023-04-21T07:27:50.578Z,94782
2023-04-21T07:31:15.865Z,94780
2023-04-21T07:34:40.969Z,94768
2023-04-21T07:38:06.209Z,94767
2023-04-21T07:41:31.473Z,94773
2023-04-21T07:44:56.652Z,94786
2023-04-21T07:48:21.874Z,94778
2023-04-21T07:51:47.114Z,94782
2023-04-21T07:55:12.345Z,94784
2023-04-21T07:58:37.602Z,94785
2023-04-21T08:02:02.851Z,94780
2023-04-21T08:05:31.632Z,94780
2023-04-21T08:08:53.235Z,94778
2023-04-21T08:12:18.458Z,94781
2023-04-21T08:15:44.032Z,94782
2023-04-21T08:19:08.971Z,94780
2023-04-21T08:22:34.206Z,94772
2023-04-21T08:25:59.391Z,94771
2023-04-21T08:29:24.683Z,94774
2023-04-21T08:32:50.000Z,94773
2023-04-21T08:36:26.353Z,94774
2023-04-21T08:39:40.366Z,94767
2023-04-21T08:43:05.625Z,94769
2023-04-21T08:46:30.872Z,94760
2023-04-21T08:49:56.149Z,94762
2023-04-21T08:53:21.382Z,94768
2023-04-21T08:56:46.614Z,94774
2023-04-21T09:00:11.842Z,94769
2023-04-21T09:03:37.153Z,94763
2023-04-21T09:07:02.399Z,94769
2023-04-21T09:10:27.597Z,94765
2023-04-21T09:13:53.003Z,94766
2023-04-21T09:17:18.221Z,94772
2023-04-21T09:20:43.437Z,94776
2023-04-21T09:24:08.681Z,94783
2023-04-21T09:27:33.912Z,94780
2023-04-21T09:30:59.129Z,94771
2023-04-21T09:34:24.344Z,94770
2023-04-21T09:37:49.576Z,94765
2023-04-21T09:41:14.821Z,94769
2023-04-21T09:44:50.883Z,94762
2023-04-21T09:48:05.253Z,94763
2023-04-21T09:51:42.635Z,94763
2023-04-21T09:54:55.734Z,94774
2023-04-21T09:58:20.964Z,94767
2023-04-21T10:01:46.229Z,94763
2023-04-21T10:05:11.494Z,94767
2023-04-21T10:08:36.675Z,94762
2023-04-21T10:12:01.874Z,94768
2023-04-21T10:15:27.127Z,94763
2023-04-21T10:18:52.336Z,94750
2023-04-21T10:22:17.701Z,94756
2023-04-21T10:25:42.822Z,94753
2023-04-21T10:29:08.078Z,94745
2023-04-21T10:32:33.528Z,94737
2023-04-21T10:35:58.803Z,94742
2023-04-21T10:39:24.034Z,94741
2023-04-21T10:42:49.224Z,94737
2023-04-21T10:46:14.449Z,94731
2023-04-21T10:49:39.704Z,94726
2023-04-21T10:53:04.921Z,94720
2023-04-21T10:56:30.135Z,94715
2023-04-21T10:59:55.924Z,94718
2023-04-21T11:03:21.292Z,94714
2023-04-21T11:06:46.466Z,94704
2023-04-21T11:10:11.699Z,94711
2023-04-21T11:13:36.896Z,94702
2023-04-21T11:17:02.157Z,94708
2023-04-21T11:20:27.332Z,94699
2023-04-21T11:23:52.628Z,94691
2023-04-21T11:27:17.780Z,94695
2023-04-21T11:30:43.025Z,94688
2023-04-21T11:34:08.288Z,94686
2023-04-21T11:37:33.652Z,94691
2023-04-21T11:40:58.950Z,94683
2023-04-21T11:44:24.172Z,94674
2023-04-21T11:47:49.449Z,94680
2023-04-21T11:51:14.594Z,94677
2023-04-21T11:54:39.934Z,94675
2023-04-21T11:58:05.218Z,94679
2023-04-21T12:01:30.429Z,94676
2023-04-21T12:04:55.749Z,94673
2023-04-21T12:08:20.902Z,94672
2023-04-21T12:11:47.347Z,94671
2023-04-21T12:15:11.363Z,94667
2023-04-21T12:18:36.892Z,94670
2023-04-21T12:22:01.781Z,94667
2023-04-21T12:25:27.003Z,94664
2023-04-21T12:28:52.253Z,94667
2023-04-21T12:32:17.551Z,94658
2023-04-21T12:35:42.650Z,94661
2023-04-21T12:39:07.953Z,94664
2023-04-21T12:42:34.729Z,94652
2023-04-21T12:45:58.428Z,94652
2023-04-21T12:49:23.752Z,94645
2023-04-21T12:52:48.940Z,94645
2023-04-21T12:56:14.180Z,94643
2023-04-21T12:59:39.382Z,94636
2023-04-21T13:03:04.848Z,94631
2023-04-21T13:06:29.978Z,94639
2023-04-21T13:09:55.211Z,94635
2023-04-21T13:13:20.544Z,94636
2023-04-21T13:16:45.841Z,94642
2023-04-21T13:20:11.129Z,94635
2023-04-21T13:23:36.368Z,94632
2023-04-21T13:27:01.613Z,94639
2023-04-21T13:30:26.867Z,94627
2023-04-21T13:33:53.765Z,94622
2023-04-21T13:37:17.701Z,94626
2023-04-21T13:40:42.986Z,94619
2023-04-21T13:44:08.145Z,94625
2023-04-21T13:47:33.419Z,94610
2023-04-21T13:50:58.637Z,94605
2023-04-21T13:54:24.549Z,94617
2023-04-21T13:57:49.125Z,94606
2023-04-21T14:01:14.670Z,94599
2023-04-21T14:04:39.837Z,94613
2023-04-21T14:08:04.828Z,94600
2023-04-21T14:11:30.116Z,94602
2023-04-21T14:14:55.336Z,94607
2023-04-21T14:18:20.601Z,94599
2023-04-21T14:21:45.846Z,94600
2023-04-21T14:25:11.058Z,94593
2023-04-21T14:28:36.334Z,94592
2023-04-21T14:32:02.227Z,94596
2023-04-21T14:35:27.059Z,94600
2023-04-21T14:38:52.373Z,94580
2023-04-21T14:42:17.600Z,94578
2023-04-21T14:45:42.833Z,94578
2023-04-21T14:49:08.079Z,94585
2023-04-21T14:52:33.298Z,94581
2023-04-21T14:55:58.978Z,94581
2023-04-21T14:59:25.454Z,94576
2023-04-21T15:02:50.811Z,94572
2023-04-21T15:06:15.981Z,94569
2023-04-21T15:41:26.983Z,94539
2023-04-21T15:44:52.203Z,94546
2023-04-21T15:48:17.527Z,94543
2023-04-21T15:51:42.755Z,94537
2023-04-21T15:55:08.063Z,94535
2023-04-21T15:58:33.365Z,94532
2023-04-21T16:01:58.721Z,94533
2023-04-21T16:05:26.457Z,94531
2023-04-21T16:08:49.146Z,94528
2023-04-21T16:12:14.414Z,94533
2023-04-21T16:15:39.736Z,94534
2023-04-21T16:19:04.943Z,94531
2023-04-21T16:22:30.194Z,94528
2023-04-21T16:25:55.526Z,94524
2023-04-21T16:29:20.832Z,94523
2023-04-21T16:32:46.228Z,94519
2023-04-21T16:36:11.382Z,94514
2023-04-21T16:39:36.595Z,94513
2023-04-21T16:43:01.934Z,94515
2023-04-21T16:46:27.188Z,94510
2023-04-21T16:49:52.461Z,94508
2023-04-21T16:53:17.612Z,94507
2023-04-21T16:56:42.877Z,94513
2023-04-21T17:00:08.170Z,94517
2023-04-21T17:03:33.585Z,94513
2023-04-21T17:06:58.854Z,94518
2023-04-21T17:10:23.983Z,94512
2023-04-21T17:13:49.529Z,94515
2023-04-21T17:17:14.870Z,94515
2023-04-21T17:20:40.235Z,94518
2023-04-21T17:24:05.590Z,94515
2023-04-21T17:27:31.020Z,94513
2023-04-21T17:31:07.438Z,94510
2023-04-21T17:34:21.729Z,94511
2023-04-21T17:37:47.115Z,94513
2023-04-21T17:41:12.538Z,94504
2023-04-21T17:44:38.203Z,94512
2023-04-21T17:48:03.262Z,94513
2023-04-21T17:51:28.621Z,94509
2023-04-21T17:54:54.013Z,94508
2023-04-21T17:58:19.384Z,94509
2023-04-21T18:01:44.829Z,94507
2023-04-21T18:05:10.228Z,94512
2023-04-21T18:08:35.559Z,94518
2023-04-21T18:12:00.894Z,94515
2023-04-21T18:15:26.331Z,94515
2023-04-21T18:18:51.680Z,94514
2023-04-21T18:22:17.045Z,94520
2023-04-21T18:25:43.129Z,94524
2023-04-21T18:29:07.728Z,94524
2023-04-21T18:32:33.135Z,94528
2023-04-21T18:35:58.452Z,94526
2023-04-21T18:39:23.762Z,94518
2023-04-21T18:42:49.097Z,94518
2023-04-21T18:46:14.552Z,94520
2023-04-21T18:49:39.830Z,94523
2023-04-21T18:53:05.138Z,94523
2023-04-21T18:56:30.451Z,94519
2023-04-21T18:59:55.783Z,94518
2023-04-21T19:03:21.222Z,94527
2023-04-21T19:06:46.450Z,94529
2023-04-21T19:10:11.760Z,94530
2023-04-21T19:13:37.094Z,94535
2023-04-21T19:17:02.420Z,94530
2023-04-21T19:20:27.713Z,94536
2023-04-21T19:23:53.013Z,94536
2023-04-21T19:27:18.321Z,94537
2023-04-21T19:30:43.621Z,94542
2023-04-21T19:34:08.974Z,94547
2023-04-21T19:37:35.233Z,94548
2023-04-21T19:40:59.736Z,94553
2023-04-21T19:44:25.017Z,94555
2023-04-21T19:47:50.374Z,94559
2023-04-21T19:51:15.693Z,94563
2023-04-21T19:54:41.048Z,94571
2023-04-21T19:58:06.406Z,94575
2023-04-21T20:01:31.802Z,94575
2023-04-21T20:04:57.164Z,94573
2023-04-21T20:08:22.613Z,94579
2023-04-21T20:11:47.931Z,94577
2023-04-21T20:15:13.377Z,94576
2023-04-21T20:18:38.705Z,94582
2023-04-21T20:22:04.067Z,94578
2023-04-21T20:25:29.519Z,94580
2023-04-21T20:28:54.866Z,94582
2023-04-21T20:32:20.249Z,94590
2023-04-21T20:35:45.513Z,94586
2023-04-21T20:39:10.731Z,94585
2023-04-21T20:42:35.940Z,94583
2023-04-21T20:46:01.162Z,94585
2023-04-21T20:49:26.431Z,94586
2023-04-21T20:52:51.618Z,94580
2023-04-21T20:56:16.826Z,94576
2023-04-21T20:59:42.046Z,94572
2023-04-21T21:03:07.347Z,94575
2023-04-21T21:06:32.504Z,94574
2023-04-21T21:09:57.668Z,94582
2023-04-21T21:13:22.878Z,94580
2023-04-21T21:16:48.104Z,94583
2023-04-21T21:20:13.317Z,94581
2023-04-21T21:23:38.553Z,94587
2023-04-21T21:27:03.724Z,94593
2023-04-21T21:30:28.934Z,94592
2023-04-21T21:33:54.143Z,94588
2023-04-21T21:37:19.361Z,94594
2023-04-21T21:40:44.603Z,94590
2023-04-21T21:44:09.793Z,94588
2023-04-21T21:47:36.546Z,94593
2023-04-21T21:51:00.202Z,94595
2023-04-21T21:54:25.401Z,94592
2023-04-21T21:57:50.645Z,94593
2023-04-21T22:01:15.869Z,94588
2023-04-21T22:04:41.066Z,94592
2023-04-21T22:08:06.214Z,94592
2023-04-21T22:11:31.424Z,94590
2023-04-21T22:14:56.635Z,94600
2023-04-21T22:18:21.800Z,94599
2023-04-21T22:21:47.058Z,94595
2023-04-21T22:25:12.236Z,94588
2023-04-21T22:28:37.414Z,94595
2023-04-21T22:32:02.671Z,94592
2023-04-21T22:35:27.827Z,94594
2023-04-21T22:38:53.044Z,94597
2023-04-21T22:42:18.248Z,94594
2023-04-21T22:45:43.453Z,94594
2023-04-21T22:49:08.693Z,94592
2023-04-21T22:52:33.867Z,94598
2023-04-21T22:55:59.059Z,94593
2023-04-21T22:59:24.269Z,94598
2023-04-21T23:02:49.552Z,94596
2023-04-21T23:06:14.758Z,94595
2023-04-21T23:09:40.213Z,94590
2023-04-21T23:13:05.128Z,94587
2023-04-21T23:16:30.370Z,94590
2023-04-21T23:19:55.536Z,94587
2023-04-21T23:23:20.770Z,94591
2023-04-21T23:26:45.981Z,94592
2023-04-21T23:30:11.177Z,94589
2023-04-21T23:33:36.379Z,94588
2023-04-21T23:37:01.612Z,94582
2023-04-21T23:40:26.821Z,94577
2023-04-21T23:43:52.005Z,94582
2023-04-21T23:47:17.234Z,94579
2023-04-21T23:50:42.465Z,94583
2023-04-21T23:54:07.635Z,94580
2023-04-21T23:57:32.854Z,94578
